Time;durP1;ratioP1;P1;durP2;ratioP2;P2;SDS_P1;SDS_P2;PMS_P1;PMS_P2;Temp;Humidity;BMP_temperature;BMP_pressure;BME280_temperature;BME280_humidity;BME280_pressure;Samples;Min_cycle;Max_cycle;Signal;HPM_P1;HPM_P2
2022/04/17 00:02:02;;;;;;;4.60;2.30;;;8.20;80.80;;;;;;5093729;28;20156;-65
2022/04/17 00:04:28;;;;;;;4.85;2.50;;;8.20;81.20;;;;;;5093449;28;20081;-64
2022/04/17 00:06:54;;;;;;;4.22;1.80;;;8.20;81.60;;;;;;5093328;28;20032;-63
2022/04/17 00:09:20;;;;;;;3.25;2.13;;;8.10;81.80;;;;;;5094378;28;20035;-62
2022/04/17 00:11:46;;;;;;;4.03;1.70;;;8.10;82.00;;;;;;5094927;28;20028;-63
2022/04/17 00:14:11;;;;;;;4.60;2.20;;;8.00;82.20;;;;;;5093430;28;20266;-63
2022/04/17 00:16:40;;;;;;;5.00;2.27;;;8.00;82.60;;;;;;5093501;28;20032;-62
2022/04/17 00:19:06;;;;;;;3.15;2.20;;;8.00;82.60;;;;;;5093353;28;20031;-62
2022/04/17 00:21:32;;;;;;;3.03;1.92;;;7.90;82.90;;;;;;5093420;28;20028;-63
2022/04/17 00:23:58;;;;;;;2.88;2.10;;;7.90;83.40;;;;;;5092955;28;20031;-64
2022/04/17 00:26:24;;;;;;;3.83;2.13;;;7.90;83.70;;;;;;5092921;28;20028;-64
2022/04/17 00:28:49;;;;;;;3.37;2.33;;;7.90;84.10;;;;;;5092624;28;20188;-64
2022/04/17 00:31:15;;;;;;;3.27;2.00;;;7.80;84.40;;;;;;5095488;28;20212;-64
2022/04/17 00:33:40;;;;;;;3.93;2.40;;;7.80;85.00;;;;;;5097202;28;20104;-63
2022/04/17 00:36:06;;;;;;;3.30;2.30;;;7.70;85.40;;;;;;5097176;28;20024;-64
2022/04/17 00:38:32;;;;;;;4.27;2.07;;;7.70;85.70;;;;;;5097124;28;20024;-62
2022/04/17 00:40:57;;;;;;;4.83;2.97;;;7.70;85.90;;;;;;5096585;28;20389;-62
2022/04/17 00:43:32;;;;;;;4.03;2.00;;;7.70;85.90;;;;;;5095131;28;20020;-63
2022/04/17 00:45:57;;;;;;;4.72;2.10;;;7.70;86.00;;;;;;5097135;28;20069;-60
2022/04/17 00:48:23;;;;;;;5.18;2.33;;;7.70;86.10;;;;;;5097040;28;20027;-63
2022/04/17 00:50:51;;;;;;;5.35;2.63;;;7.60;86.10;;;;;;5096877;28;20104;-61
2022/04/17 00:53:18;;;;;;;4.97;2.00;;;7.60;86.30;;;;;;5097051;28;20027;-62
2022/04/17 00:55:46;;;;;;;5.25;2.60;;;7.60;86.60;;;;;;5096431;28;20036;-62
2022/04/17 00:58:13;;;;;;;5.10;2.80;;;7.60;86.90;;;;;;5096664;28;20028;-62
2022/04/17 01:00:40;;;;;;;4.10;2.70;;;7.60;87.30;;;;;;5096447;28;20031;-63
2022/04/17 01:03:06;;;;;;;4.38;2.40;;;7.50;87.70;;;;;;5096616;28;20107;-63
2022/04/17 01:05:32;;;;;;;5.85;2.90;;;7.50;88.00;;;;;;5096161;28;20064;-63
2022/04/17 01:07:58;;;;;;;5.13;2.40;;;7.40;88.50;;;;;;5096177;28;20059;-63
2022/04/17 01:10:24;;;;;;;5.93;2.97;;;7.40;88.70;;;;;;5095131;28;20046;-63
2022/04/17 01:12:52;;;;;;;3.90;2.30;;;7.40;89.30;;;;;;5096076;28;20631;-63
2022/04/17 01:15:18;;;;;;;3.92;2.63;;;7.40;89.70;;;;;;5094598;28;20461;-64
2022/04/17 01:17:44;;;;;;;3.67;2.70;;;7.30;90.00;;;;;;5096048;28;20153;-63
2022/04/17 01:20:11;;;;;;;5.30;2.70;;;7.30;90.20;;;;;;5095874;28;20081;-63
2022/04/17 01:22:37;;;;;;;5.00;2.75;;;7.30;90.40;;;;;;5095820;28;20028;-64
2022/04/17 01:27:46;;;;;;;4.40;2.53;;;7.20;90.80;;;;;;5095915;28;20420;-61
2022/04/17 01:30:12;;;;;;;2.90;2.43;;;7.20;90.80;;;;;;5095632;28;20024;-63
2022/04/17 01:32:37;;;;;;;4.40;2.67;;;7.20;91.00;;;;;;5095578;28;20023;-63
2022/04/17 01:35:03;;;;;;;5.20;2.50;;;7.20;91.10;;;;;;5095643;28;20020;-63
2022/04/17 01:37:29;;;;;;;5.38;3.85;;;7.10;91.30;;;;;;5095893;28;20028;-63
2022/04/17 01:39:55;;;;;;;4.47;2.67;;;7.10;91.40;;;;;;5095779;28;20024;-63
2022/04/17 01:42:20;;;;;;;3.87;2.57;;;7.10;91.60;;;;;;5095528;28;20103;-63
2022/04/17 01:44:46;;;;;;;4.40;2.60;;;7.00;91.70;;;;;;5097303;28;20028;-62
2022/04/17 01:47:12;;;;;;;4.97;2.23;;;7.00;92.00;;;;;;5097080;28;20066;-63
2022/04/17 01:49:37;;;;;;;4.25;2.70;;;7.00;92.10;;;;;;5097550;28;20160;-62
2022/04/17 01:52:03;;;;;;;2.93;2.13;;;6.90;92.00;;;;;;5095654;28;20039;-62
2022/04/17 01:54:30;;;;;;;3.83;2.83;;;6.90;92.30;;;;;;5095922;28;20020;-60
2022/04/17 01:56:56;;;;;;;4.35;2.80;;;6.90;92.30;;;;;;5094958;28;20323;-62
2022/04/17 01:59:23;;;;;;;3.63;2.60;;;6.90;92.50;;;;;;5097299;28;20028;-62
2022/04/17 02:01:50;;;;;;;4.88;2.47;;;6.90;92.50;;;;;;5096333;28;20024;-60
2022/04/17 02:04:15;;;;;;;;;;;6.90;92.20;;;;;;5095299;28;20027;-63
2022/04/17 02:06:42;;;;;;;4.28;2.30;;;6.90;92.30;;;;;;5095698;28;19911;-61
2022/04/17 02:09:09;;;;;;;;;;;6.80;92.30;;;;;;5095315;28;20020;-61
2022/04/17 02:11:35;;;;;;;4.93;3.00;;;6.80;92.50;;;;;;5095018;28;19958;-63
2022/04/17 02:14:00;;;;;;;6.00;3.03;;;6.80;92.70;;;;;;5095287;28;20036;-62
2022/04/17 02:16:26;;;;;;;5.83;3.23;;;6.80;92.70;;;;;;5095143;28;20034;-62
2022/04/17 02:18:52;;;;;;;5.43;3.00;;;6.80;93.10;;;;;;5094701;28;20074;-62
2022/04/17 02:21:19;;;;;;;6.00;2.75;;;6.80;92.80;;;;;;5095439;28;20493;-63
2022/04/17 02:23:45;;;;;;;;;;;6.70;92.90;;;;;;5095460;28;20028;-63
2022/04/17 02:26:11;;;;;;;3.50;2.80;;;6.70;93.00;;;;;;5094657;28;20002;-62
2022/04/17 02:28:40;;;;;;;3.97;2.90;;;6.70;93.30;;;;;;5095006;28;20024;-62
2022/04/17 02:31:06;;;;;;;6.43;2.92;;;6.70;93.40;;;;;;5094403;28;20028;-63
2022/04/17 02:33:32;;;;;;;4.45;3.10;;;6.60;93.30;;;;;;5094941;28;20017;-63
2022/04/17 02:35:58;;;;;;;7.07;3.17;;;6.60;93.40;;;;;;5094409;28;20028;-63
2022/04/17 02:38:25;;;;;;;5.05;2.70;;;6.60;93.80;;;;;;5094377;28;20425;-63
2022/04/17 02:40:52;;;;;;;6.25;3.03;;;6.60;93.90;;;;;;5092870;28;20095;-62
2022/04/17 02:43:17;;;;;;;;;;;6.60;94.20;;;;;;5094807;28;20039;-63
2022/04/17 02:45:43;;;;;;;3.47;2.08;;;6.70;94.20;;;;;;5094978;28;19904;-61
2022/04/17 02:48:09;;;;;;;3.58;2.35;;;6.60;94.20;;;;;;5093163;28;20330;-63
2022/04/17 02:50:34;;;;;;;3.57;2.60;;;6.60;94.20;;;;;;5094924;28;20050;-63
2022/04/17 02:53:00;;;;;;;4.93;2.50;;;6.60;94.20;;;;;;5094118;28;20021;-63
2022/04/17 02:55:26;;;;;;;7.63;2.85;;;6.50;94.50;;;;;;5094308;28;20113;-64
2022/04/17 02:57:52;;;;;;;4.40;2.90;;;6.50;94.70;;;;;;5094499;28;20024;-63
2022/04/17 03:00:17;;;;;;;4.65;2.90;;;6.40;94.90;;;;;;5094004;28;20031;-63
2022/04/17 03:05:36;;;;;;;4.95;3.38;;;6.20;95.60;;;;;;5094249;28;20280;-64
2022/04/17 03:08:07;;;;;;;6.43;2.60;;;6.10;96.30;;;;;;5094389;28;20031;-63
2022/04/17 03:10:36;;;;;;;4.20;2.80;;;6.00;96.30;;;;;;5094754;28;20021;-63
2022/04/17 03:13:03;;;;;;;4.45;2.60;;;5.90;97.00;;;;;;5094333;28;20089;-63
2022/04/17 03:15:28;;;;;;;3.88;2.50;;;5.90;97.30;;;;;;5094769;28;20026;-63
2022/04/17 03:17:54;;;;;;;2.97;2.30;;;5.80;97.70;;;;;;5094761;28;20059;-63
2022/04/17 03:20:20;;;;;;;4.50;2.47;;;5.80;97.90;;;;;;5095975;28;20048;-63
2022/04/17 03:22:45;;;;;;;6.30;2.67;;;5.80;98.10;;;;;;5095621;28;20097;-63
2022/04/17 03:25:12;;;;;;;4.87;2.77;;;5.80;98.20;;;;;;5097700;28;20028;-64
2022/04/17 03:27:37;;;;;;;4.65;2.70;;;5.80;98.40;;;;;;5118405;22;20433;-66
2022/04/17 03:30:04;;;;;;;2.80;2.30;;;5.80;98.60;;;;;;5053766;28;20067;-66
2022/04/17 03:32:31;;;;;;;3.50;2.80;;;5.70;98.90;;;;;;5054918;28;20434;-66
2022/04/17 03:34:57;;;;;;;3.75;2.70;;;5.60;99.30;;;;;;5055065;28;20082;-66
2022/04/17 03:37:23;;;;;;;4.00;3.10;;;5.60;99.50;;;;;;5055439;28;20060;-66
2022/04/17 03:39:48;;;;;;;3.40;2.50;;;5.60;99.70;;;;;;5072230;28;20369;-66
2022/04/17 03:42:15;;;;;;;4.10;3.00;;;5.60;99.80;;;;;;5073343;28;20031;-66
2022/04/17 03:44:41;;;;;;;4.75;2.40;;;5.60;99.90;;;;;;5073172;28;20048;-66
2022/04/17 03:47:07;;;;;;;4.32;2.92;;;5.50;99.90;;;;;;5071920;28;20028;-66
2022/04/17 03:49:33;;;;;;;4.00;2.80;;;5.50;99.90;;;;;;5071798;28;20446;-67
2022/04/17 03:52:00;;;;;;;7.72;3.30;;;5.40;99.90;;;;;;5073806;28;20047;-66
2022/04/17 03:54:26;;;;;;;3.97;2.50;;;5.40;99.90;;;;;;5074745;28;20028;-66
2022/04/17 03:56:52;;;;;;;6.30;2.80;;;5.30;99.90;;;;;;5074701;28;20520;-66
2022/04/17 03:59:18;;;;;;;8.50;3.17;;;5.20;99.90;;;;;;5072656;28;20040;-66
2022/04/17 04:01:46;;;;;;;5.18;3.20;;;5.20;99.90;;;;;;5074516;28;20032;-66
2022/04/17 04:04:11;;;;;;;4.85;2.92;;;5.10;99.90;;;;;;5075028;28;20054;-65
2022/04/17 04:06:37;;;;;;;3.72;2.97;;;5.10;99.90;;;;;;5078612;28;20031;-65
2022/04/17 04:09:03;;;;;;;5.55;3.70;;;5.10;99.90;;;;;;5078112;28;20040;-65
2022/04/17 04:11:29;;;;;;;5.53;2.97;;;5.10;99.90;;;;;;5077969;28;20099;-65
2022/04/17 04:13:55;;;;;;;3.63;2.75;;;5.00;99.90;;;;;;5076609;28;20036;-65
2022/04/17 04:16:20;;;;;;;5.60;3.10;;;4.90;99.90;;;;;;5077675;28;20078;-66
2022/04/17 04:18:46;;;;;;;4.90;2.97;;;4.90;99.90;;;;;;5076325;28;20427;-65
2022/04/17 04:21:12;;;;;;;8.13;3.13;;;4.80;99.90;;;;;;5076971;28;20111;-66
2022/04/17 04:23:38;;;;;;;5.87;2.93;;;4.80;99.90;;;;;;5078051;28;20046;-66
2022/04/17 04:26:04;;;;;;;4.70;3.00;;;4.70;99.90;;;;;;5075845;28;20052;-66
2022/04/17 04:28:33;;;;;;;5.37;3.03;;;4.70;99.90;;;;;;5076427;28;20440;-67
2022/04/17 04:31:00;;;;;;;4.50;2.90;;;4.70;99.90;;;;;;5076579;28;20012;-66
2022/04/17 04:33:25;;;;;;;3.95;3.03;;;4.70;99.90;;;;;;5076824;28;20052;-66
2022/04/17 04:35:51;;;;;;;5.33;3.20;;;4.70;99.90;;;;;;5075087;28;20025;-66
2022/04/17 04:38:17;;;;;;;5.03;3.60;;;4.70;99.90;;;;;;5074996;28;20572;-66
2022/04/17 04:40:43;;;;;;;4.97;3.15;;;4.70;99.90;;;;;;5076562;28;20273;-65
2022/04/17 04:43:09;;;;;;;4.40;3.10;;;4.60;99.90;;;;;;5076610;28;20032;-66
2022/04/17 04:51:02;;;;;;;4.82;3.30;;;4.60;99.90;;;;;;5082388;28;20063;-66
2022/04/17 04:53:28;;;;;;;7.13;3.30;;;4.70;99.90;;;;;;5077139;28;20028;-66
2022/04/17 04:55:54;;;;;;;5.73;3.77;;;4.70;99.90;;;;;;5076618;28;20119;-66
2022/04/17 04:58:20;;;;;;;7.07;3.33;;;4.70;99.90;;;;;;5076247;28;20100;-66
2022/04/17 05:00:46;;;;;;;6.93;3.22;;;4.70;99.90;;;;;;5075017;28;20028;-66
2022/04/17 05:03:11;;;;;;;4.73;3.40;;;4.70;99.90;;;;;;5076134;28;20150;-66
2022/04/17 05:05:37;;;;;;;5.93;3.20;;;4.70;99.90;;;;;;5076286;28;20578;-66
2022/04/17 05:08:03;;;;;;;4.90;3.30;;;4.70;99.90;;;;;;5076079;28;20021;-66
2022/04/17 05:10:29;;;;;;;4.07;2.90;;;4.70;99.90;;;;;;5074556;28;20107;-65
2022/04/17 05:12:54;;;;;;;4.10;3.20;;;4.70;99.90;;;;;;5074317;28;20106;-66
2022/04/17 05:15:21;;;;;;;5.27;3.40;;;4.70;99.90;;;;;;5074557;28;20021;-66
2022/04/17 05:17:47;;;;;;;4.05;2.83;;;4.70;99.90;;;;;;5073848;28;20411;-66
2022/04/17 05:20:15;;;;;;;5.00;3.30;;;4.80;99.90;;;;;;5075873;28;20074;-66
2022/04/17 05:22:40;;;;;;;6.20;3.50;;;4.80;99.90;;;;;;5076086;28;20024;-66
2022/04/17 05:25:07;;;;;;;5.37;3.20;;;4.90;99.90;;;;;;5075667;28;20023;-66
2022/04/17 05:27:33;;;;;;;6.57;3.72;;;5.00;99.90;;;;;;5077642;28;20282;-66
2022/04/17 05:29:59;;;;;;;4.13;3.30;;;5.00;99.90;;;;;;5077425;28;20098;-66
2022/04/17 05:32:24;;;;;;;5.83;3.13;;;5.00;99.90;;;;;;5077319;28;20074;-65
2022/04/17 05:34:50;;;;;;;4.87;3.60;;;5.10;99.90;;;;;;5077925;28;20033;-66
2022/04/17 05:37:16;;;;;;;7.40;4.07;;;5.20;99.90;;;;;;5075538;28;20032;-68
2022/04/17 05:39:41;;;;;;;6.47;3.47;;;5.20;99.90;;;;;;5074584;28;20024;-67
2022/04/17 05:42:07;;;;;;;6.23;3.60;;;5.30;99.90;;;;;;5078112;28;20031;-67
2022/04/17 05:44:37;;;;;;;4.53;3.25;;;5.40;99.90;;;;;;5078533;28;20346;-65
2022/04/17 05:47:03;;;;;;;5.72;3.60;;;5.40;99.90;;;;;;5077949;28;20056;-67
2022/04/17 05:49:28;;;;;;;5.15;3.42;;;5.40;99.90;;;;;;5079521;28;20059;-66
2022/04/17 05:51:56;;;;;;;4.80;2.90;;;5.50;99.90;;;;;;5078302;28;20389;-65
2022/04/17 05:54:23;;;;;;;3.42;2.88;;;5.60;99.90;;;;;;5076153;28;20066;-65
2022/04/17 05:56:48;;;;;;;6.22;3.22;;;5.60;99.90;;;;;;5074917;28;20103;-66
2022/04/17 05:59:14;;;;;;;6.00;3.00;;;5.70;99.90;;;;;;5077030;28;20048;-65
2022/04/17 06:01:40;;;;;;;8.93;4.00;;;5.80;99.90;;;;;;5075008;28;20024;-66
2022/04/17 06:04:05;;;;;;;5.75;3.00;;;5.80;99.90;;;;;;5076155;28;20020;-67
2022/04/17 06:06:31;;;;;;;4.33;3.00;;;5.90;99.90;;;;;;5075996;28;20107;-66
2022/04/17 06:08:57;;;;;;;6.88;3.55;;;6.00;99.90;;;;;;5075512;28;20035;-66
2022/04/17 06:11:22;;;;;;;7.30;3.20;;;6.10;99.60;;;;;;5075603;28;20032;-64
2022/04/17 06:13:48;;;;;;;7.00;3.30;;;6.20;99.20;;;;;;5076953;28;20020;-66
2022/04/17 06:16:14;;;;;;;5.45;2.88;;;6.20;99.20;;;;;;5078179;28;20457;-66
2022/04/17 06:18:40;;;;;;;5.07;3.33;;;6.30;99.00;;;;;;5075948;28;20090;-66
2022/04/17 06:21:06;;;;;;;4.87;3.33;;;6.30;98.40;;;;;;5075905;28;20095;-65
2022/04/17 06:23:32;;;;;;;6.03;2.58;;;6.40;98.30;;;;;;5076096;28;20553;-65
2022/04/17 06:25:59;;;;;;;5.40;3.17;;;6.50;98.30;;;;;;5076704;28;20033;-66
2022/04/17 06:28:24;;;;;;;6.20;3.53;;;6.60;97.60;;;;;;5075361;28;20178;-65
2022/04/17 06:30:50;;;;;;;6.33;2.83;;;6.70;97.40;;;;;;5075124;28;20020;-65
2022/04/17 06:33:16;;;;;;;5.33;2.83;;;6.80;97.10;;;;;;5076016;28;20021;-66
2022/04/17 06:35:41;;;;;;;5.13;3.00;;;6.90;96.80;;;;;;5076552;28;20016;-66
2022/04/17 06:38:10;;;;;;;5.10;2.73;;;7.00;96.60;;;;;;5075869;28;20024;-66
2022/04/17 06:40:36;;;;;;;4.68;2.72;;;7.10;96.40;;;;;;5075514;28;20154;-62
2022/04/17 06:43:05;;;;;;;4.15;2.50;;;7.20;96.10;;;;;;5075347;28;20020;-65
2022/04/17 06:45:33;;;;;;;4.32;2.88;;;7.30;95.80;;;;;;5073430;28;20031;-65
2022/04/17 06:48:14;;;;;;;4.10;2.53;;;7.30;95.70;;;;;;5073086;28;20073;-66
2022/04/17 06:50:40;;;;;;;4.45;2.55;;;7.40;95.20;;;;;;5074384;28;20052;-66
2022/04/17 06:53:06;;;;;;;4.25;2.53;;;7.50;94.90;;;;;;5074488;28;20078;-67
2022/04/17 06:55:32;;;;;;;6.97;3.15;;;7.50;94.70;;;;;;5073330;28;20024;-66
2022/04/17 06:57:57;;;;;;;5.55;2.70;;;7.60;94.80;;;;;;5073490;28;20029;-66
2022/04/17 07:00:23;;;;;;;3.57;2.80;;;7.70;94.30;;;;;;5074076;28;20450;-66
2022/04/17 07:02:49;;;;;;;3.63;2.30;;;7.80;94.20;;;;;;5075231;28;20031;-66
2022/04/17 07:05:15;;;;;;;3.03;2.43;;;7.90;94.00;;;;;;5073530;28;20025;-67
2022/04/17 07:07:41;;;;;;;4.43;2.88;;;7.90;93.90;;;;;;5074154;28;20267;-66
2022/04/17 07:10:08;;;;;;;4.45;3.03;;;8.00;93.60;;;;;;5074220;28;20067;-66
2022/04/17 07:12:37;;;;;;;6.20;2.72;;;8.10;93.50;;;;;;5073911;28;20476;-66
2022/04/17 07:15:06;;;;;;;3.63;2.30;;;8.10;93.50;;;;;;5073848;28;20024;-66
2022/04/17 07:17:33;;;;;;;4.88;2.95;;;8.30;92.60;;;;;;5073205;28;20031;-66
2022/04/17 07:19:59;;;;;;;3.40;2.50;;;8.40;92.10;;;;;;5073023;28;20469;-66
2022/04/17 07:22:24;;;;;;;3.13;2.27;;;8.50;92.00;;;;;;5074140;28;20042;-66
2022/04/17 07:24:53;;;;;;;4.47;2.30;;;8.60;91.50;;;;;;5073373;28;20476;-66
2022/04/17 07:27:20;;;;;;;3.15;2.00;;;8.80;90.60;;;;;;5075088;28;20027;-66
2022/04/17 07:29:46;;;;;;;3.83;1.98;;;8.90;90.10;;;;;;5073942;28;20032;-67
2022/04/17 07:32:11;;;;;;;2.92;2.38;;;9.00;90.40;;;;;;5073986;28;20057;-66
2022/04/17 07:34:37;;;;;;;4.00;2.20;;;9.10;90.10;;;;;;5073789;28;20134;-67
2022/04/17 07:37:03;;;;;;;2.25;1.73;;;9.30;89.60;;;;;;5073725;28;20445;-66
2022/04/17 07:39:29;;;;;;;4.37;2.33;;;9.40;87.10;;;;;;5073510;28;20170;-66
2022/04/17 07:41:55;;;;;;;3.80;1.83;;;9.50;85.30;;;;;;5075896;28;20255;-66
2022/04/17 07:44:20;;;;;;;2.87;2.07;;;9.60;85.60;;;;;;5074410;28;20029;-65
2022/04/17 07:46:46;;;;;;;3.13;1.83;;;9.60;84.30;;;;;;5075348;28;20745;-66
2022/04/17 07:49:11;;;;;;;3.60;1.83;;;9.80;83.80;;;;;;5073851;28;20028;-65
2022/04/17 07:51:39;;;;;;;3.50;1.90;;;9.90;82.70;;;;;;5092332;28;23110;-67
2022/04/17 07:54:04;;;;;;;3.20;1.93;;;10.10;81.90;;;;;;5092355;28;20123;-69
2022/04/17 07:56:30;;;;;;;2.83;1.73;;;10.10;80.90;;;;;;5096703;28;20063;-65
2022/04/17 07:58:55;;;;;;;2.13;1.83;;;10.10;80.50;;;;;;5096999;28;20024;-66
2022/04/17 08:01:22;;;;;;;5.83;2.20;;;10.20;79.90;;;;;;5095246;28;20024;-65
2022/04/17 08:03:47;;;;;;;2.67;1.63;;;10.30;79.20;;;;;;5092491;28;20016;-64
2022/04/17 08:06:20;;;;;;;2.20;1.60;;;10.30;79.60;;;;;;5095589;28;20353;-65
2022/04/17 08:08:46;;;;;;;4.22;2.20;;;10.40;78.50;;;;;;5092215;28;20162;-64
2022/04/17 08:11:12;;;;;;;2.95;1.60;;;10.50;77.70;;;;;;5093775;28;20020;-69
2022/04/17 08:13:39;;;;;;;3.08;1.67;;;10.40;77.50;;;;;;5093653;28;20426;-67
2022/04/17 08:16:06;;;;;;;2.40;1.75;;;10.50;77.50;;;;;;5093383;28;20043;-66
2022/04/17 08:18:33;;;;;;;3.30;1.60;;;10.60;77.30;;;;;;5093408;28;20028;-66
2022/04/17 08:20:59;;;;;;;6.00;2.47;;;10.80;76.70;;;;;;5093036;28;20024;-66
2022/04/17 08:23:24;;;;;;;2.33;1.58;;;10.90;76.50;;;;;;5093608;28;20388;-64
2022/04/17 08:25:50;;;;;;;3.07;2.20;;;11.00;75.20;;;;;;5091884;28;20028;-68
2022/04/17 08:28:15;;;;;;;5.73;1.70;;;11.00;75.10;;;;;;5091621;28;20481;-66
2022/04/17 08:30:41;;;;;;;2.70;1.40;;;11.10;74.10;;;;;;5092751;28;20027;-65
2022/04/17 08:33:08;;;;;;;2.90;1.93;;;11.30;74.00;;;;;;5091734;28;20024;-69
2022/04/17 08:35:34;;;;;;;4.30;1.92;;;11.80;72.80;;;;;;5093071;28;20020;-69
2022/04/17 08:38:00;;;;;;;3.55;1.80;;;13.00;69.90;;;;;;5091394;28;20031;-68
2022/04/17 08:40:27;;;;;;;3.50;1.73;;;13.90;65.90;;;;;;5092816;28;20465;-68
2022/04/17 08:42:56;;;;;;;3.20;1.73;;;14.60;63.70;;;;;;5091445;28;20039;-69
2022/04/17 08:45:23;;;;;;;3.40;2.00;;;15.30;61.50;;;;;;5092513;28;20020;-67
2022/04/17 08:47:50;;;;;;;3.10;1.90;;;16.00;60.10;;;;;;5092316;28;20024;-69
2022/04/17 08:50:18;;;;;;;3.20;1.95;;;16.80;58.10;;;;;;5093184;28;20500;-64
2022/04/17 08:52:48;;;;;;;3.13;1.80;;;18.00;57.00;;;;;;5096659;28;20153;-67
2022/04/17 08:55:14;;;;;;;2.70;1.42;;;19.40;54.40;;;;;;5096817;28;20027;-68
2022/04/17 08:57:40;;;;;;;2.97;1.67;;;20.10;50.40;;;;;;5096979;28;20039;-66
2022/04/17 09:00:10;;;;;;;3.63;1.75;;;18.60;51.40;;;;;;5096665;28;20473;-65
2022/04/17 09:02:36;;;;;;;2.65;1.80;;;19.10;51.10;;;;;;5096768;28;20024;-63
2022/04/17 09:05:07;;;;;;;3.40;2.00;;;19.10;50.40;;;;;;5096276;28;20024;-64
2022/04/17 09:07:40;;;;;;;2.88;1.50;;;19.90;49.20;;;;;;5096965;28;20028;-68
2022/04/17 09:10:07;;;;;;;2.13;1.60;;;20.40;48.20;;;;;;5096367;28;20030;-66
2022/04/17 09:12:33;;;;;;;3.65;1.30;;;20.10;47.80;;;;;;5095921;28;20098;-66
2022/04/17 09:14:59;;;;;;;2.45;1.40;;;21.50;47.20;;;;;;5096456;28;20020;-72
2022/04/17 09:17:28;;;;;;;;;;;22.40;46.00;;;;;;5095737;28;20028;-69
2022/04/17 09:19:54;;;;;;;3.97;1.65;;;21.20;46.40;;;;;;5096105;28;19995;-68
2022/04/17 09:22:19;;;;;;;2.25;1.52;;;21.30;46.00;;;;;;5096244;28;20089;-72
2022/04/17 09:24:45;;;;;;;;;;;22.20;45.30;;;;;;5095121;28;20027;-69
2022/04/17 09:27:11;;;;;;;1.70;1.35;;;21.00;45.00;;;;;;5096010;28;19908;-67
2022/04/17 09:29:37;;;;;;;;;;;20.90;45.50;;;;;;5116612;22;20039;-65
2022/04/17 09:32:04;;;;;;;2.55;1.60;;;22.10;44.50;;;;;;5096299;28;19915;-64
2022/04/17 09:34:52;;;;;;;3.90;1.48;;;22.50;44.20;;;;;;5095678;28;20044;-63
2022/04/17 09:37:19;;;;;;;1.83;1.40;;;22.80;43.00;;;;;;5096013;28;20020;-64
2022/04/17 09:39:46;;;;;;;2.75;1.65;;;22.50;44.20;;;;;;5095669;28;20028;-64
2022/04/17 09:42:12;;;;;;;4.03;1.70;;;24.30;43.10;;;;;;5095696;28;20170;-63
2022/04/17 09:44:46;;;;;;;2.15;1.80;;;24.60;41.90;;;;;;5095594;28;20031;-66
2022/04/17 09:47:26;;;;;;;2.22;1.65;;;25.80;41.60;;;;;;5095581;28;20030;-64
2022/04/17 09:50:03;;;;;;;4.45;1.50;;;26.60;40.40;;;;;;5095461;28;20024;-64
2022/04/17 09:52:33;;;;;;;2.13;1.48;;;25.30;39.90;;;;;;5077563;28;20503;-65
2022/04/17 09:55:00;;;;;;;2.97;1.70;;;23.10;40.50;;;;;;5095611;28;20099;-65
2022/04/17 09:57:43;;;;;;;1.85;1.30;;;21.70;41.60;;;;;;5095468;28;20052;-65
2022/04/17 10:00:16;;;;;;;2.22;1.15;;;21.40;42.90;;;;;;5077613;28;20109;-64
2022/04/17 10:02:47;;;;;;;3.83;1.55;;;20.30;43.70;;;;;;5095769;28;20020;-70
2022/04/17 10:05:15;;;;;;;2.65;1.30;;;21.00;44.20;;;;;;5078397;28;20024;-69
2022/04/17 10:07:42;;;;;;;3.78;1.50;;;21.70;42.40;;;;;;5095790;28;20061;-68
2022/04/17 10:10:09;;;;;;;2.83;1.45;;;22.80;41.70;;;;;;5076950;28;20034;-68
2022/04/17 10:12:35;;;;;;;2.63;1.13;;;24.10;41.20;;;;;;5096018;28;20434;-69
2022/04/17 10:15:04;;;;;;;3.22;1.50;;;23.70;40.40;;;;;;5095362;28;20103;-66
2022/04/17 10:17:31;;;;;;;2.85;1.60;;;22.60;41.30;;;;;;5096440;28;20036;-65
2022/04/17 10:20:06;;;;;;;2.40;1.50;;;22.10;41.80;;;;;;5077841;28;20058;-65
2022/04/17 10:22:38;;;;;;;1.50;1.30;;;21.80;41.90;;;;;;5095524;28;20046;-65
2022/04/17 10:25:07;;;;;;;2.47;1.38;;;22.10;42.10;;;;;;5095892;28;20020;-67
2022/04/17 10:27:36;;;;;;;4.07;1.63;;;21.10;42.50;;;;;;5096684;28;20111;-65
2022/04/17 10:30:07;;;;;;;3.70;1.30;;;21.10;43.00;;;;;;5095190;28;20053;-67
2022/04/17 10:33:00;;;;;;;4.15;1.30;;;21.20;42.80;;;;;;5095349;28;20045;-66
2022/04/17 10:35:29;;;;;;;1.60;1.10;;;21.90;42.70;;;;;;5095402;28;20065;-68
2022/04/17 10:38:24;;;;;;;2.05;1.30;;;21.80;43.10;;;;;;5097055;28;20072;-68
2022/04/17 10:40:59;;;;;;;5.07;1.80;;;22.50;43.10;;;;;;5078735;28;20428;-67
2022/04/17 10:43:44;;;;;;;3.85;1.48;;;22.10;43.40;;;;;;5078026;28;20051;-68
2022/04/17 10:46:15;;;;;;;3.05;1.27;;;22.90;43.10;;;;;;5095001;28;20392;-65
2022/04/17 10:48:48;;;;;;;2.13;1.42;;;22.70;42.80;;;;;;5078840;28;20458;-65
2022/04/17 10:51:35;;;;;;;2.15;1.35;;;23.00;42.90;;;;;;5098854;28;20020;-68
2022/04/17 10:54:06;;;;;;;2.35;1.38;;;23.90;41.60;;;;;;5098888;28;20429;-68
2022/04/17 10:56:34;;;;;;;2.28;1.20;;;24.00;41.30;;;;;;5098031;28;20020;-66
2022/04/17 10:59:05;;;;;;;2.03;1.33;;;22.30;41.80;;;;;;5096329;28;20024;-62
2022/04/17 11:01:45;;;;;;;2.65;1.13;;;21.80;42.80;;;;;;5094571;28;20085;-67
2022/04/17 11:04:15;;;;;;;3.63;1.52;;;21.20;43.70;;;;;;5078974;28;20124;-65
2022/04/17 11:06:42;;;;;;;2.13;1.25;;;20.40;44.90;;;;;;5087692;28;20024;-68
2022/04/17 11:09:23;;;;;;;5.00;1.60;;;19.30;45.60;;;;;;5099088;28;20027;-67
2022/04/17 11:11:49;;;;;;;3.35;2.10;;;17.40;47.30;;;;;;5099658;28;20059;-64
2022/04/17 11:14:21;;;;;;;12.20;7.97;;;16.60;48.70;;;;;;5094892;28;20028;-63
2022/04/17 11:16:53;;;;;;;16.42;7.13;;;16.30;49.20;;;;;;5076183;28;20533;-66
2022/04/17 11:19:21;;;;;;;3.47;1.70;;;16.20;49.20;;;;;;5076171;28;20032;-66
2022/04/17 11:21:52;;;;;;;34.95;20.25;;;16.10;49.30;;;;;;5075938;28;20028;-67
2022/04/17 11:24:19;;;;;;;14.23;8.15;;;16.00;50.20;;;;;;5076041;28;20392;-67
2022/04/17 11:26:53;;;;;;;5.00;3.22;;;16.00;50.50;;;;;;5093780;28;20016;-68
2022/04/17 11:29:40;;;;;;;4.38;1.63;;;16.00;49.90;;;;;;5075349;28;20024;-68
2022/04/17 11:32:17;;;;;;;3.83;2.55;;;15.80;49.70;;;;;;5093597;28;20016;-68
2022/04/17 11:34:52;;;;;;;2.55;1.67;;;15.80;50.20;;;;;;5093890;28;20016;-68
2022/04/17 11:37:23;;;;;;;2.83;1.65;;;15.80;50.30;;;;;;5093775;28;20024;-68
2022/04/17 11:39:50;;;;;;;2.70;1.70;;;15.70;50.80;;;;;;5093509;28;20027;-66
2022/04/17 11:42:15;;;;;;;3.80;1.42;;;15.80;50.80;;;;;;5093404;28;20070;-66
2022/04/17 11:44:42;;;;;;;2.80;1.60;;;15.80;50.90;;;;;;5093369;28;20020;-66
2022/04/17 11:47:12;;;;;;;4.03;1.70;;;15.50;51.50;;;;;;5075101;28;20270;-66
2022/04/17 11:49:43;;;;;;;4.22;1.85;;;15.50;51.70;;;;;;5093460;28;20111;-66
2022/04/17 11:52:30;;;;;;;2.20;1.30;;;15.60;51.70;;;;;;5075341;28;20035;-66
2022/04/17 11:54:55;;;;;;;;;;;15.80;51.90;;;;;;5093911;28;20020;-65
2022/04/17 11:57:21;;;;;;;1.67;1.05;;;16.00;51.10;;;;;;5093767;28;19904;-64
2022/04/17 11:59:51;;;;;;;1.50;1.17;;;15.80;51.30;;;;;;5093335;28;20502;-64
2022/04/17 12:02:21;;;;;;;3.80;1.13;;;15.60;51.70;;;;;;5093402;28;20258;-64
2022/04/17 12:04:49;;;;;;;2.60;1.38;;;15.80;51.80;;;;;;5093846;28;20024;-64
2022/04/17 12:07:25;;;;;;;2.80;1.40;;;15.70;51.40;;;;;;5093689;28;20028;-64
2022/04/17 12:10:06;;;;;;;1.90;1.20;;;15.70;51.70;;;;;;5093377;28;20024;-65
2022/04/17 12:12:40;;;;;;;2.20;1.40;;;15.70;52.00;;;;;;5094527;28;20024;-65
2022/04/17 12:15:08;;;;;;;2.97;1.20;;;15.80;52.00;;;;;;5095073;28;20338;-66
2022/04/17 12:17:34;;;;;;;2.80;1.73;;;15.90;52.10;;;;;;5077360;28;20484;-65
2022/04/17 12:20:12;;;;;;;3.80;1.23;;;16.00;52.00;;;;;;5096486;28;20051;-65
2022/04/17 12:22:39;;;;;;;1.85;1.40;;;16.00;52.10;;;;;;5096730;28;20020;-65
2022/04/17 12:25:19;;;;;;;4.05;1.30;;;16.10;51.70;;;;;;5096529;28;20024;-64
2022/04/17 12:27:53;;;;;;;1.85;1.10;;;16.00;52.00;;;;;;5097747;28;20020;-66
2022/04/17 12:30:24;;;;;;;1.60;1.23;;;16.10;52.30;;;;;;5079166;28;20464;-65
2022/04/17 12:32:51;;;;;;;2.90;1.38;;;16.10;51.70;;;;;;5097393;28;20490;-66
2022/04/17 12:35:29;;;;;;;1.95;1.33;;;16.10;51.60;;;;;;5078888;28;20020;-66
2022/04/17 12:38:10;;;;;;;4.45;1.67;;;15.90;51.20;;;;;;5078685;28;20384;-65
2022/04/17 12:40:43;;;;;;;2.70;1.27;;;15.90;51.50;;;;;;5097080;28;20377;-64
2022/04/17 12:43:18;;;;;;;3.22;1.60;;;16.00;51.20;;;;;;5097624;28;20020;-64
2022/04/17 12:45:54;;;;;;;3.65;1.30;;;16.00;51.80;;;;;;5078878;28;20408;-66
2022/04/17 12:48:31;;;;;;;2.33;1.35;;;16.00;51.00;;;;;;5097438;28;20120;-64
2022/04/17 12:50:58;;;;;;;1.83;1.30;;;16.00;51.10;;;;;;5078611;28;20020;-67
2022/04/17 12:53:24;;;;;;;3.40;1.15;;;16.00;51.10;;;;;;5096952;28;20030;-65
2022/04/17 12:55:53;;;;;;;4.93;2.17;;;16.10;51.20;;;;;;5096907;28;20024;-64
2022/04/17 12:58:20;;;;;;;3.58;1.45;;;16.20;50.80;;;;;;5096629;28;20028;-67
2022/04/17 13:00:58;;;;;;;2.75;1.35;;;16.20;50.40;;;;;;5096685;28;20580;-67
2022/04/17 13:03:34;;;;;;;2.40;1.10;;;16.30;50.40;;;;;;5078767;28;20078;-66
2022/04/17 13:06:00;;;;;;;1.33;1.00;;;16.30;50.10;;;;;;5078064;28;20077;-66
2022/04/17 13:08:26;;;;;;;;;;;16.20;50.10;;;;;;5078316;28;20024;-69
2022/04/17 13:10:51;;;;;;;2.63;1.27;;;16.30;50.70;;;;;;5078022;28;19904;-66